sensor_id;sensor_type;location;lat;lon;timestamp;P1;durP1;ratioP1;P2;durP2;ratioP2
34359;SDS011;20624;55.870;26.506;2023-02-28T00:01:32;16.30;;;6.97;;
34359;SDS011;20624;55.870;26.506;2023-02-28T00:03:59;17.45;;;7.55;;
34359;SDS011;20624;55.870;26.506;2023-02-28T00:06:27;16.77;;;7.43;;
34359;SDS011;20624;55.870;26.506;2023-02-28T00:08:55;15.40;;;6.80;;
34359;SDS011;20624;55.870;26.506;2023-02-28T00:11:22;16.60;;;6.57;;
34359;SDS011;20624;55.870;26.506;2023-02-28T00:13:50;16.38;;;6.82;;
34359;SDS011;20624;55.870;26.506;2023-02-28T00:16:19;14.80;;;6.90;;
34359;SDS011;20624;55.870;26.506;2023-02-28T00:18:49;13.40;;;6.57;;
34359;SDS011;20624;55.870;26.506;2023-02-28T00:21:17;17.02;;;6.35;;
34359;SDS011;20624;55.870;26.506;2023-02-28T00:23:45;11.40;;;5.60;;
34359;SDS011;20624;55.870;26.506;2023-02-28T00:26:13;16.60;;;6.22;;
34359;SDS011;20624;55.870;26.506;2023-02-28T00:28:41;11.93;;;5.95;;
34359;SDS011;20624;55.870;26.506;2023-02-28T00:31:08;15.25;;;6.63;;
34359;SDS011;20624;55.870;26.506;2023-02-28T00:33:36;16.60;;;6.13;;
34359;SDS011;20624;55.870;26.506;2023-02-28T00:36:09;14.93;;;5.65;;
34359;SDS011;20624;55.870;26.506;2023-02-28T00:38:37;12.52;;;5.07;;
34359;SDS011;20624;55.870;26.506;2023-02-28T00:41:05;9.80;;;5.45;;
34359;SDS011;20624;55.870;26.506;2023-02-28T00:43:34;12.02;;;5.70;;
34359;SDS011;20624;55.870;26.506;2023-02-28T00:46:02;18.42;;;6.70;;
34359;SDS011;20624;55.870;26.506;2023-02-28T00:48:30;12.82;;;6.07;;
34359;SDS011;20624;55.870;26.506;2023-02-28T00:50:58;13.32;;;6.00;;
34359;SDS011;20624;55.870;26.506;2023-02-28T00:53:25;12.70;;;6.15;;
34359;SDS011;20624;55.870;26.506;2023-02-28T00:55:53;11.18;;;5.93;;
34359;SDS011;20624;55.870;26.506;2023-02-28T00:58:20;11.63;;;6.15;;
34359;SDS011;20624;55.870;26.506;2023-02-28T01:00:48;19.88;;;7.43;;
34359;SDS011;20624;55.870;26.506;2023-02-28T01:03:16;9.20;;;5.57;;
34359;SDS011;20624;55.870;26.506;2023-02-28T01:05:44;14.13;;;6.38;;
34359;SDS011;20624;55.870;26.506;2023-02-28T01:08:12;10.50;;;5.55;;
34359;SDS011;20624;55.870;26.506;2023-02-28T01:10:40;12.55;;;5.63;;
34359;SDS011;20624;55.870;26.506;2023-02-28T01:13:07;10.70;;;6.15;;
34359;SDS011;20624;55.870;26.506;2023-02-28T01:15:35;11.60;;;6.03;;
34359;SDS011;20624;55.870;26.506;2023-02-28T01:18:03;14.15;;;6.40;;
34359;SDS011;20624;55.870;26.506;2023-02-28T01:20:32;11.75;;;6.25;;
34359;SDS011;20624;55.870;26.506;2023-02-28T01:22:59;15.40;;;6.40;;
34359;SDS011;20624;55.870;26.506;2023-02-28T01:25:27;19.30;;;6.65;;
34359;SDS011;20624;55.870;26.506;2023-02-28T01:27:55;13.05;;;6.55;;
34359;SDS011;20624;55.870;26.506;2023-02-28T01:30:22;17.88;;;7.82;;
34359;SDS011;20624;55.870;26.506;2023-02-28T01:32:50;18.45;;;8.55;;
34359;SDS011;20624;55.870;26.506;2023-02-28T01:35:19;14.02;;;7.63;;
34359;SDS011;20624;55.870;26.506;2023-02-28T01:37:47;15.07;;;7.30;;
34359;SDS011;20624;55.870;26.506;2023-02-28T01:40:15;17.25;;;7.80;;
34359;SDS011;20624;55.870;26.506;2023-02-28T01:42:42;18.15;;;7.22;;
34359;SDS011;20624;55.870;26.506;2023-02-28T01:45:26;18.40;;;7.95;;
34359;SDS011;20624;55.870;26.506;2023-02-28T01:47:58;19.63;;;7.88;;
34359;SDS011;20624;55.870;26.506;2023-02-28T01:50:30;15.13;;;7.50;;
34359;SDS011;20624;55.870;26.506;2023-02-28T01:53:02;23.00;;;8.95;;
34359;SDS011;20624;55.870;26.506;2023-02-28T01:55:33;39.50;;;16.52;;
34359;SDS011;20624;55.870;26.506;2023-02-28T01:58:02;20.70;;;7.85;;
34359;SDS011;20624;55.870;26.506;2023-02-28T02:00:31;13.23;;;5.45;;
34359;SDS011;20624;55.870;26.506;2023-02-28T02:03:00;13.70;;;5.93;;
34359;SDS011;20624;55.870;26.506;2023-02-28T02:05:29;13.00;;;6.45;;
34359;SDS011;20624;55.870;26.506;2023-02-28T02:08:11;20.73;;;6.68;;
34359;SDS011;20624;55.870;26.506;2023-02-28T02:10:40;14.15;;;6.10;;
34359;SDS011;20624;55.870;26.506;2023-02-28T02:15:57;18.45;;;6.55;;
34359;SDS011;20624;55.870;26.506;2023-02-28T02:18:34;16.30;;;6.88;;
34359;SDS011;20624;55.870;26.506;2023-02-28T02:26:26;17.00;;;6.60;;
34359;SDS011;20624;55.870;26.506;2023-02-28T02:31:51;19.83;;;6.50;;
34359;SDS011;20624;55.870;26.506;2023-02-28T02:34:42;12.25;;;5.15;;
34359;SDS011;20624;55.870;26.506;2023-02-28T02:45:08;11.68;;;5.13;;
34359;SDS011;20624;55.870;26.506;2023-02-28T02:47:37;12.25;;;5.38;;
34359;SDS011;20624;55.870;26.506;2023-02-28T02:50:07;12.05;;;4.78;;
34359;SDS011;20624;55.870;26.506;2023-02-28T02:52:42;12.32;;;6.50;;
34359;SDS011;20624;55.870;26.506;2023-02-28T02:55:15;14.35;;;5.55;;
34359;SDS011;20624;55.870;26.506;2023-02-28T02:57:46;19.65;;;7.30;;
34359;SDS011;20624;55.870;26.506;2023-02-28T03:00:27;12.93;;;5.47;;
34359;SDS011;20624;55.870;26.506;2023-02-28T03:02:59;15.23;;;7.90;;
34359;SDS011;20624;55.870;26.506;2023-02-28T03:05:30;13.48;;;5.38;;
34359;SDS011;20624;55.870;26.506;2023-02-28T03:08:09;12.63;;;6.50;;
34359;SDS011;20624;55.870;26.506;2023-02-28T03:10:39;15.80;;;7.05;;
34359;SDS011;20624;55.870;26.506;2023-02-28T03:16:22;28.27;;;10.20;;
34359;SDS011;20624;55.870;26.506;2023-02-28T03:21:26;11.90;;;4.93;;
34359;SDS011;20624;55.870;26.506;2023-02-28T03:27:01;10.80;;;4.55;;
34359;SDS011;20624;55.870;26.506;2023-02-28T03:29:33;34.33;;;11.75;;
34359;SDS011;20624;55.870;26.506;2023-02-28T03:32:24;31.15;;;18.02;;
34359;SDS011;20624;55.870;26.506;2023-02-28T03:37:58;17.20;;;7.72;;
34359;SDS011;20624;55.870;26.506;2023-02-28T03:40:41;11.00;;;5.53;;
34359;SDS011;20624;55.870;26.506;2023-02-28T03:43:11;10.60;;;5.13;;
34359;SDS011;20624;55.870;26.506;2023-02-28T03:45:47;16.63;;;6.88;;
34359;SDS011;20624;55.870;26.506;2023-02-28T03:48:20;13.27;;;7.32;;
34359;SDS011;20624;55.870;26.506;2023-02-28T03:50:49;10.48;;;5.50;;
34359;SDS011;20624;55.870;26.506;2023-02-28T03:55:49;13.27;;;6.35;;
34359;SDS011;20624;55.870;26.506;2023-02-28T03:58:26;15.85;;;6.50;;
34359;SDS011;20624;55.870;26.506;2023-02-28T04:01:07;12.18;;;7.57;;
34359;SDS011;20624;55.870;26.506;2023-02-28T04:06:16;17.30;;;8.65;;
34359;SDS011;20624;55.870;26.506;2023-02-28T04:08:45;13.15;;;5.57;;
34359;SDS011;20624;55.870;26.506;2023-02-28T04:11:16;15.73;;;5.75;;
34359;SDS011;20624;55.870;26.506;2023-02-28T04:13:57;9.48;;;4.88;;
34359;SDS011;20624;55.870;26.506;2023-02-28T04:16:24;16.25;;;5.93;;
34359;SDS011;20624;55.870;26.506;2023-02-28T04:19:04;15.85;;;6.15;;
34359;SDS011;20624;55.870;26.506;2023-02-28T04:21:37;11.57;;;5.13;;
34359;SDS011;20624;55.870;26.506;2023-02-28T04:24:07;11.73;;;5.70;;
34359;SDS011;20624;55.870;26.506;2023-02-28T04:26:43;22.40;;;7.75;;
34359;SDS011;20624;55.870;26.506;2023-02-28T04:29:19;13.10;;;6.40;;
34359;SDS011;20624;55.870;26.506;2023-02-28T04:32:01;12.13;;;6.32;;
34359;SDS011;20624;55.870;26.506;2023-02-28T04:34:30;11.38;;;5.07;;
34359;SDS011;20624;55.870;26.506;2023-02-28T04:36:58;16.27;;;7.00;;
34359;SDS011;20624;55.870;26.506;2023-02-28T04:39:42;23.38;;;10.85;;
34359;SDS011;20624;55.870;26.506;2023-02-28T04:42:10;31.80;;;13.07;;
34359;SDS011;20624;55.870;26.506;2023-02-28T04:44:38;47.22;;;19.73;;
34359;SDS011;20624;55.870;26.506;2023-02-28T04:47:06;22.23;;;10.07;;
34359;SDS011;20624;55.870;26.506;2023-02-28T04:49:33;33.35;;;14.52;;
34359;SDS011;20624;55.870;26.506;2023-02-28T04:52:00;41.05;;;17.92;;
34359;SDS011;20624;55.870;26.506;2023-02-28T04:54:28;34.08;;;14.30;;
34359;SDS011;20624;55.870;26.506;2023-02-28T04:56:58;19.25;;;7.57;;
34359;SDS011;20624;55.870;26.506;2023-02-28T04:59:25;12.23;;;4.28;;
34359;SDS011;20624;55.870;26.506;2023-02-28T05:01:53;10.05;;;3.00;;
34359;SDS011;20624;55.870;26.506;2023-02-28T05:04:20;14.10;;;3.55;;
34359;SDS011;20624;55.870;26.506;2023-02-28T05:06:48;10.02;;;2.60;;
34359;SDS011;20624;55.870;26.506;2023-02-28T05:09:15;15.52;;;3.63;;
34359;SDS011;20624;55.870;26.506;2023-02-28T05:11:43;10.80;;;2.30;;
34359;SDS011;20624;55.870;26.506;2023-02-28T05:14:11;6.28;;;2.00;;
34359;SDS011;20624;55.870;26.506;2023-02-28T05:16:39;11.60;;;2.92;;
34359;SDS011;20624;55.870;26.506;2023-02-28T05:19:07;5.97;;;2.20;;
34359;SDS011;20624;55.870;26.506;2023-02-28T05:21:36;4.38;;;1.73;;
34359;SDS011;20624;55.870;26.506;2023-02-28T05:24:04;13.65;;;3.80;;
34359;SDS011;20624;55.870;26.506;2023-02-28T05:26:36;9.70;;;2.13;;
34359;SDS011;20624;55.870;26.506;2023-02-28T05:29:04;14.57;;;3.97;;
34359;SDS011;20624;55.870;26.506;2023-02-28T05:31:31;16.50;;;3.78;;
34359;SDS011;20624;55.870;26.506;2023-02-28T05:33:59;16.02;;;4.30;;
34359;SDS011;20624;55.870;26.506;2023-02-28T05:36:27;17.83;;;4.68;;
34359;SDS011;20624;55.870;26.506;2023-02-28T05:38:54;21.15;;;3.67;;
34359;SDS011;20624;55.870;26.506;2023-02-28T05:41:22;7.53;;;2.17;;
34359;SDS011;20624;55.870;26.506;2023-02-28T05:43:49;12.10;;;2.65;;
34359;SDS011;20624;55.870;26.506;2023-02-28T05:46:17;31.48;;;4.70;;
34359;SDS011;20624;55.870;26.506;2023-02-28T05:48:46;16.50;;;3.00;;
34359;SDS011;20624;55.870;26.506;2023-02-28T05:51:14;22.00;;;3.90;;
34359;SDS011;20624;55.870;26.506;2023-02-28T05:53:42;13.43;;;2.88;;
34359;SDS011;20624;55.870;26.506;2023-02-28T05:56:09;12.45;;;2.28;;
34359;SDS011;20624;55.870;26.506;2023-02-28T05:58:37;26.52;;;4.10;;
34359;SDS011;20624;55.870;26.506;2023-02-28T06:01:21;21.45;;;3.40;;
34359;SDS011;20624;55.870;26.506;2023-02-28T06:04:03;12.38;;;2.15;;
34359;SDS011;20624;55.870;26.506;2023-02-28T06:06:31;11.02;;;3.20;;
34359;SDS011;20624;55.870;26.506;2023-02-28T06:09:03;17.92;;;3.13;;
34359;SDS011;20624;55.870;26.506;2023-02-28T06:11:32;26.98;;;4.50;;
34359;SDS011;20624;55.870;26.506;2023-02-28T06:14:00;19.05;;;4.10;;
34359;SDS011;20624;55.870;26.506;2023-02-28T06:16:28;25.75;;;3.88;;
34359;SDS011;20624;55.870;26.506;2023-02-28T06:18:57;37.90;;;5.90;;
34359;SDS011;20624;55.870;26.506;2023-02-28T06:21:25;25.58;;;3.78;;
34359;SDS011;20624;55.870;26.506;2023-02-28T06:23:57;46.08;;;7.20;;
34359;SDS011;20624;55.870;26.506;2023-02-28T06:26:25;47.08;;;8.25;;
34359;SDS011;20624;55.870;26.506;2023-02-28T06:28:53;35.30;;;6.75;;
34359;SDS011;20624;55.870;26.506;2023-02-28T06:31:21;25.30;;;3.85;;
34359;SDS011;20624;55.870;26.506;2023-02-28T06:33:49;77.90;;;13.20;;
34359;SDS011;20624;55.870;26.506;2023-02-28T06:36:17;72.70;;;12.15;;
34359;SDS011;20624;55.870;26.506;2023-02-28T06:38:45;34.45;;;5.30;;
34359;SDS011;20624;55.870;26.506;2023-02-28T06:41:14;42.95;;;6.78;;
34359;SDS011;20624;55.870;26.506;2023-02-28T06:43:42;42.70;;;7.60;;
34359;SDS011;20624;55.870;26.506;2023-02-28T06:46:11;59.17;;;8.93;;
34359;SDS011;20624;55.870;26.506;2023-02-28T06:48:40;43.65;;;6.35;;
34359;SDS011;20624;55.870;26.506;2023-02-28T06:51:10;40.10;;;6.20;;
34359;SDS011;20624;55.870;26.506;2023-02-28T06:53:40;50.92;;;9.20;;
34359;SDS011;20624;55.870;26.506;2023-02-28T06:56:08;39.50;;;6.53;;
34359;SDS011;20624;55.870;26.506;2023-02-28T06:58:37;51.08;;;8.98;;
34359;SDS011;20624;55.870;26.506;2023-02-28T07:01:06;57.53;;;10.50;;
34359;SDS011;20624;55.870;26.506;2023-02-28T07:03:37;35.72;;;7.15;;
34359;SDS011;20624;55.870;26.506;2023-02-28T07:06:05;49.38;;;10.82;;
34359;SDS011;20624;55.870;26.506;2023-02-28T07:08:33;34.70;;;6.20;;
34359;SDS011;20624;55.870;26.506;2023-02-28T07:11:02;51.40;;;7.50;;
34359;SDS011;20624;55.870;26.506;2023-02-28T07:13:30;52.13;;;7.57;;
34359;SDS011;20624;55.870;26.506;2023-02-28T07:15:59;56.30;;;8.10;;
34359;SDS011;20624;55.870;26.506;2023-02-28T07:20:56;39.25;;;5.97;;
34359;SDS011;20624;55.870;26.506;2023-02-28T07:23:23;46.70;;;8.07;;
34359;SDS011;20624;55.870;26.506;2023-02-28T07:25:51;29.55;;;5.22;;
34359;SDS011;20624;55.870;26.506;2023-02-28T07:28:19;48.38;;;7.75;;
34359;SDS011;20624;55.870;26.506;2023-02-28T07:30:47;43.55;;;6.72;;
34359;SDS011;20624;55.870;26.506;2023-02-28T07:33:15;62.50;;;10.70;;
34359;SDS011;20624;55.870;26.506;2023-02-28T07:35:43;46.45;;;6.97;;
34359;SDS011;20624;55.870;26.506;2023-02-28T07:38:11;102.20;;;16.05;;
34359;SDS011;20624;55.870;26.506;2023-02-28T07:40:40;28.40;;;5.22;;
34359;SDS011;20624;55.870;26.506;2023-02-28T07:43:07;54.40;;;8.38;;
34359;SDS011;20624;55.870;26.506;2023-02-28T07:45:34;43.92;;;7.25;;
34359;SDS011;20624;55.870;26.506;2023-02-28T07:48:02;46.38;;;7.85;;
34359;SDS011;20624;55.870;26.506;2023-02-28T07:50:30;54.42;;;8.68;;
34359;SDS011;20624;55.870;26.506;2023-02-28T07:53:04;59.55;;;9.10;;
34359;SDS011;20624;55.870;26.506;2023-02-28T07:55:32;72.22;;;10.55;;
34359;SDS011;20624;55.870;26.506;2023-02-28T07:58:00;64.47;;;10.15;;
34359;SDS011;20624;55.870;26.506;2023-02-28T08:00:28;58.13;;;8.55;;
34359;SDS011;20624;55.870;26.506;2023-02-28T08:05:25;47.35;;;7.57;;
34359;SDS011;20624;55.870;26.506;2023-02-28T08:07:53;42.78;;;7.43;;
34359;SDS011;20624;55.870;26.506;2023-02-28T08:10:21;67.57;;;9.85;;
34359;SDS011;20624;55.870;26.506;2023-02-28T08:12:48;50.28;;;8.02;;
34359;SDS011;20624;55.870;26.506;2023-02-28T08:15:16;37.20;;;7.15;;
34359;SDS011;20624;55.870;26.506;2023-02-28T08:17:43;58.97;;;8.80;;
34359;SDS011;20624;55.870;26.506;2023-02-28T08:20:11;42.83;;;7.18;;
34359;SDS011;20624;55.870;26.506;2023-02-28T08:22:39;85.78;;;22.80;;
34359;SDS011;20624;55.870;26.506;2023-02-28T08:25:11;68.60;;;11.77;;
34359;SDS011;20624;55.870;26.506;2023-02-28T08:27:38;58.35;;;9.75;;
34359;SDS011;20624;55.870;26.506;2023-02-28T08:30:06;59.20;;;9.25;;
34359;SDS011;20624;55.870;26.506;2023-02-28T08:32:36;59.05;;;8.80;;
34359;SDS011;20624;55.870;26.506;2023-02-28T08:35:03;42.92;;;7.40;;
34359;SDS011;20624;55.870;26.506;2023-02-28T08:37:31;47.40;;;12.15;;
34359;SDS011;20624;55.870;26.506;2023-02-28T08:39:59;60.05;;;10.50;;
34359;SDS011;20624;55.870;26.506;2023-02-28T08:42:26;38.72;;;8.18;;
34359;SDS011;20624;55.870;26.506;2023-02-28T08:44:53;62.92;;;10.40;;
34359;SDS011;20624;55.870;26.506;2023-02-28T08:47:21;47.47;;;8.80;;
34359;SDS011;20624;55.870;26.506;2023-02-28T08:49:48;75.22;;;11.35;;
34359;SDS011;20624;55.870;26.506;2023-02-28T08:52:16;54.05;;;8.40;;
34359;SDS011;20624;55.870;26.506;2023-02-28T08:54:43;39.95;;;6.30;;
34359;SDS011;20624;55.870;26.506;2023-02-28T08:57:11;42.83;;;7.07;;
34359;SDS011;20624;55.870;26.506;2023-02-28T08:59:38;66.18;;;11.20;;
34359;SDS011;20624;55.870;26.506;2023-02-28T09:02:06;57.60;;;9.30;;
34359;SDS011;20624;55.870;26.506;2023-02-28T09:04:35;53.08;;;8.45;;
34359;SDS011;20624;55.870;26.506;2023-02-28T09:07:02;37.35;;;6.40;;
34359;SDS011;20624;55.870;26.506;2023-02-28T09:09:29;39.78;;;6.93;;
34359;SDS011;20624;55.870;26.506;2023-02-28T09:11:57;46.08;;;7.22;;
34359;SDS011;20624;55.870;26.506;2023-02-28T09:14:25;43.72;;;9.48;;
34359;SDS011;20624;55.870;26.506;2023-02-28T09:16:52;42.80;;;7.80;;
34359;SDS011;20624;55.870;26.506;2023-02-28T09:19:21;66.50;;;10.18;;
34359;SDS011;20624;55.870;26.506;2023-02-28T09:21:48;63.25;;;10.15;;
34359;SDS011;20624;55.870;26.506;2023-02-28T09:24:16;75.10;;;14.38;;
34359;SDS011;20624;55.870;26.506;2023-02-28T09:26:44;112.13;;;50.42;;
34359;SDS011;20624;55.870;26.506;2023-02-28T09:29:29;110.63;;;45.72;;
34359;SDS011;20624;55.870;26.506;2023-02-28T09:31:57;75.95;;;12.20;;
34359;SDS011;20624;55.870;26.506;2023-02-28T09:34:26;56.90;;;24.30;;
34359;SDS011;20624;55.870;26.506;2023-02-28T09:36:54;66.60;;;31.25;;
34359;SDS011;20624;55.870;26.506;2023-02-28T09:39:24;32.17;;;4.93;;
34359;SDS011;20624;55.870;26.506;2023-02-28T09:41:53;140.60;;;66.32;;
34359;SDS011;20624;55.870;26.506;2023-02-28T09:46:59;52.30;;;7.82;;
34359;SDS011;20624;55.870;26.506;2023-02-28T09:49:33;24.45;;;3.88;;
34359;SDS011;20624;55.870;26.506;2023-02-28T09:52:28;62.58;;;8.63;;
34359;SDS011;20624;55.870;26.506;2023-02-28T09:57:43;53.65;;;9.30;;
34359;SDS011;20624;55.870;26.506;2023-02-28T10:05:56;62.65;;;8.93;;
34359;SDS011;20624;55.870;26.506;2023-02-28T10:08:56;40.97;;;5.65;;
34359;SDS011;20624;55.870;26.506;2023-02-28T10:11:50;34.42;;;4.82;;
34359;SDS011;20624;55.870;26.506;2023-02-28T10:14:27;68.97;;;9.80;;
34359;SDS011;20624;55.870;26.506;2023-02-28T10:16:56;50.55;;;7.25;;
34359;SDS011;20624;55.870;26.506;2023-02-28T10:19:38;26.58;;;3.78;;
34359;SDS011;20624;55.870;26.506;2023-02-28T10:25:19;31.40;;;5.30;;
34359;SDS011;20624;55.870;26.506;2023-02-28T10:27:49;38.97;;;6.07;;
34359;SDS011;20624;55.870;26.506;2023-02-28T10:30:19;36.95;;;5.60;;
34359;SDS011;20624;55.870;26.506;2023-02-28T10:32:52;51.17;;;6.80;;
34359;SDS011;20624;55.870;26.506;2023-02-28T10:35:23;51.85;;;7.20;;
34359;SDS011;20624;55.870;26.506;2023-02-28T10:37:58;52.28;;;7.45;;
34359;SDS011;20624;55.870;26.506;2023-02-28T10:40:32;36.78;;;4.88;;
34359;SDS011;20624;55.870;26.506;2023-02-28T10:45:33;56.50;;;8.02;;
34359;SDS011;20624;55.870;26.506;2023-02-28T10:48:04;42.67;;;5.93;;
34359;SDS011;20624;55.870;26.506;2023-02-28T11:10:16;70.28;;;9.73;;
34359;SDS011;20624;55.870;26.506;2023-02-28T11:12:48;39.13;;;5.63;;
34359;SDS011;20624;55.870;26.506;2023-02-28T11:15:23;30.35;;;4.30;;
34359;SDS011;20624;55.870;26.506;2023-02-28T11:17:57;55.50;;;7.80;;
34359;SDS011;20624;55.870;26.506;2023-02-28T11:20:50;41.38;;;7.18;;
34359;SDS011;20624;55.870;26.506;2023-02-28T11:23:24;63.13;;;8.93;;
34359;SDS011;20624;55.870;26.506;2023-02-28T11:26:01;69.72;;;10.57;;
34359;SDS011;20624;55.870;26.506;2023-02-28T11:28:36;67.18;;;9.55;;
34359;SDS011;20624;55.870;26.506;2023-02-28T11:34:24;51.28;;;7.20;;
34359;SDS011;20624;55.870;26.506;2023-02-28T11:37:01;38.08;;;5.50;;
34359;SDS011;20624;55.870;26.506;2023-02-28T11:39:33;43.45;;;6.47;;
34359;SDS011;20624;55.870;26.506;2023-02-28T11:42:11;60.03;;;8.57;;
34359;SDS011;20624;55.870;26.506;2023-02-28T11:48:16;50.28;;;7.68;;
34359;SDS011;20624;55.870;26.506;2023-02-28T11:59:27;75.78;;;10.43;;
34359;SDS011;20624;55.870;26.506;2023-02-28T12:05:23;44.03;;;6.30;;
34359;SDS011;20624;55.870;26.506;2023-02-28T12:10:53;45.00;;;7.78;;
34359;SDS011;20624;55.870;26.506;2023-02-28T12:13:34;59.33;;;8.35;;
34359;SDS011;20624;55.870;26.506;2023-02-28T12:16:22;61.08;;;9.23;;
34359;SDS011;20624;55.870;26.506;2023-02-28T12:27:51;48.47;;;8.70;;
34359;SDS011;20624;55.870;26.506;2023-02-28T12:38:45;41.92;;;5.97;;
34359;SDS011;20624;55.870;26.506;2023-02-28T12:42:27;46.47;;;6.63;;
34359;SDS011;20624;55.870;26.506;2023-02-28T12:45:22;52.95;;;7.65;;
34359;SDS011;20624;55.870;26.506;2023-02-28T12:50:42;54.78;;;8.45;;
34359;SDS011;20624;55.870;26.506;2023-02-28T12:55:48;65.07;;;11.40;;
34359;SDS011;20624;55.870;26.506;2023-02-28T12:58:43;66.60;;;9.77;;
34359;SDS011;20624;55.870;26.506;2023-02-28T13:04:24;48.50;;;7.30;;
34359;SDS011;20624;55.870;26.506;2023-02-28T13:09:56;30.35;;;4.50;;
34359;SDS011;20624;55.870;26.506;2023-02-28T13:12:35;69.90;;;11.68;;
34359;SDS011;20624;55.870;26.506;2023-02-28T13:15:21;41.60;;;7.70;;
34359;SDS011;20624;55.870;26.506;2023-02-28T13:17:57;50.45;;;9.38;;
34359;SDS011;20624;55.870;26.506;2023-02-28T13:20:34;43.55;;;6.90;;
34359;SDS011;20624;55.870;26.506;2023-02-28T13:40:42;65.63;;;9.05;;
34359;SDS011;20624;55.870;26.506;2023-02-28T13:45:34;63.75;;;10.15;;
34359;SDS011;20624;55.870;26.506;2023-02-28T13:48:15;63.53;;;8.98;;
34359;SDS011;20624;55.870;26.506;2023-02-28T13:50:49;54.38;;;8.10;;
34359;SDS011;20624;55.870;26.506;2023-02-28T13:53:27;63.47;;;9.02;;
34359;SDS011;20624;55.870;26.506;2023-02-28T13:56:23;47.67;;;7.82;;
34359;SDS011;20624;55.870;26.506;2023-02-28T13:59:06;46.90;;;6.55;;
34359;SDS011;20624;55.870;26.506;2023-02-28T14:02:29;47.85;;;7.22;;
34359;SDS011;20624;55.870;26.506;2023-02-28T14:05:04;39.25;;;5.53;;
34359;SDS011;20624;55.870;26.506;2023-02-28T14:07:39;50.00;;;6.78;;
34359;SDS011;20624;55.870;26.506;2023-02-28T14:10:37;67.70;;;9.80;;
34359;SDS011;20624;55.870;26.506;2023-02-28T14:16:16;46.95;;;8.15;;
34359;SDS011;20624;55.870;26.506;2023-02-28T14:18:52;29.15;;;3.95;;
34359;SDS011;20624;55.870;26.506;2023-02-28T14:21:51;34.05;;;4.72;;
34359;SDS011;20624;55.870;26.506;2023-02-28T14:24:42;59.70;;;8.65;;
34359;SDS011;20624;55.870;26.506;2023-02-28T14:27:43;46.13;;;9.88;;
34359;SDS011;20624;55.870;26.506;2023-02-28T14:44:13;45.42;;;8.55;;
34359;SDS011;20624;55.870;26.506;2023-02-28T14:46:55;44.90;;;6.32;;
34359;SDS011;20624;55.870;26.506;2023-02-28T14:49:36;31.10;;;5.35;;
34359;SDS011;20624;55.870;26.506;2023-02-28T14:52:06;49.88;;;7.00;;
34359;SDS011;20624;55.870;26.506;2023-02-28T14:54:51;44.55;;;6.28;;
34359;SDS011;20624;55.870;26.506;2023-02-28T14:57:28;34.75;;;5.78;;
34359;SDS011;20624;55.870;26.506;2023-02-28T15:00:00;58.05;;;9.77;;
34359;SDS011;20624;55.870;26.506;2023-02-28T15:02:31;45.92;;;8.38;;
34359;SDS011;20624;55.870;26.506;2023-02-28T15:05:23;48.17;;;7.47;;
34359;SDS011;20624;55.870;26.506;2023-02-28T15:10:49;48.22;;;7.82;;
34359;SDS011;20624;55.870;26.506;2023-02-28T15:13:31;28.67;;;6.13;;
34359;SDS011;20624;55.870;26.506;2023-02-28T15:16:35;30.33;;;6.20;;
34359;SDS011;20624;55.870;26.506;2023-02-28T15:21:48;37.75;;;8.70;;
34359;SDS011;20624;55.870;26.506;2023-02-28T15:27:14;48.13;;;6.60;;
34359;SDS011;20624;55.870;26.506;2023-02-28T15:29:57;37.65;;;5.43;;
34359;SDS011;20624;55.870;26.506;2023-02-28T15:32:43;28.30;;;5.75;;
34359;SDS011;20624;55.870;26.506;2023-02-28T15:35:28;33.20;;;6.10;;
34359;SDS011;20624;55.870;26.506;2023-02-28T15:38:02;20.13;;;3.47;;
34359;SDS011;20624;55.870;26.506;2023-02-28T15:40:44;39.88;;;6.75;;
34359;SDS011;20624;55.870;26.506;2023-02-28T15:48:45;33.28;;;4.38;;
34359;SDS011;20624;55.870;26.506;2023-02-28T15:51:19;30.20;;;4.68;;
34359;SDS011;20624;55.870;26.506;2023-02-28T15:53:51;33.78;;;5.88;;
34359;SDS011;20624;55.870;26.506;2023-02-28T15:56:33;29.08;;;5.10;;
34359;SDS011;20624;55.870;26.506;2023-02-28T15:59:08;22.55;;;3.25;;
34359;SDS011;20624;55.870;26.506;2023-02-28T16:04:58;27.20;;;4.78;;
34359;SDS011;20624;55.870;26.506;2023-02-28T16:07:29;31.02;;;4.45;;
34359;SDS011;20624;55.870;26.506;2023-02-28T16:09:57;24.20;;;4.63;;
34359;SDS011;20624;55.870;26.506;2023-02-28T16:12:26;30.80;;;4.05;;
34359;SDS011;20624;55.870;26.506;2023-02-28T16:15:00;26.48;;;4.00;;
34359;SDS011;20624;55.870;26.506;2023-02-28T16:17:34;28.25;;;5.60;;
34359;SDS011;20624;55.870;26.506;2023-02-28T16:20:18;26.33;;;3.88;;
34359;SDS011;20624;55.870;26.506;2023-02-28T16:22:51;35.45;;;4.82;;
34359;SDS011;20624;55.870;26.506;2023-02-28T16:25:26;17.77;;;2.15;;
34359;SDS011;20624;55.870;26.506;2023-02-28T16:28:01;18.15;;;3.08;;
34359;SDS011;20624;55.870;26.506;2023-02-28T16:30:29;16.80;;;2.35;;
34359;SDS011;20624;55.870;26.506;2023-02-28T16:32:59;31.77;;;4.93;;
34359;SDS011;20624;55.870;26.506;2023-02-28T16:35:27;21.30;;;3.05;;
34359;SDS011;20624;55.870;26.506;2023-02-28T16:37:55;20.67;;;3.05;;
34359;SDS011;20624;55.870;26.506;2023-02-28T16:40:23;24.27;;;3.63;;
34359;SDS011;20624;55.870;26.506;2023-02-28T16:42:53;25.17;;;3.55;;
34359;SDS011;20624;55.870;26.506;2023-02-28T16:45:27;15.25;;;2.00;;
34359;SDS011;20624;55.870;26.506;2023-02-28T16:47:55;23.75;;;3.38;;
34359;SDS011;20624;55.870;26.506;2023-02-28T16:50:24;15.38;;;2.85;;
34359;SDS011;20624;55.870;26.506;2023-02-28T16:52:54;6.32;;;0.90;;
34359;SDS011;20624;55.870;26.506;2023-02-28T16:55:22;16.83;;;2.45;;
34359;SDS011;20624;55.870;26.506;2023-02-28T16:57:52;15.18;;;2.17;;
34359;SDS011;20624;55.870;26.506;2023-02-28T17:00:21;14.82;;;2.13;;
34359;SDS011;20624;55.870;26.506;2023-02-28T17:02:50;16.80;;;2.40;;
34359;SDS011;20624;55.870;26.506;2023-02-28T17:05:18;19.48;;;2.90;;
34359;SDS011;20624;55.870;26.506;2023-02-28T17:07:46;13.52;;;1.98;;
34359;SDS011;20624;55.870;26.506;2023-02-28T17:10:21;9.35;;;1.27;;
34359;SDS011;20624;55.870;26.506;2023-02-28T17:12:53;27.10;;;3.63;;
34359;SDS011;20624;55.870;26.506;2023-02-28T17:15:34;14.95;;;2.00;;
34359;SDS011;20624;55.870;26.506;2023-02-28T17:18:04;11.48;;;1.65;;
34359;SDS011;20624;55.870;26.506;2023-02-28T17:20:32;11.02;;;1.42;;
34359;SDS011;20624;55.870;26.506;2023-02-28T17:23:02;9.15;;;1.30;;
34359;SDS011;20624;55.870;26.506;2023-02-28T17:25:29;10.35;;;1.60;;
34359;SDS011;20624;55.870;26.506;2023-02-28T17:27:57;9.10;;;1.40;;
34359;SDS011;20624;55.870;26.506;2023-02-28T17:30:25;16.40;;;3.15;;
34359;SDS011;20624;55.870;26.506;2023-02-28T17:32:54;6.70;;;1.10;;
34359;SDS011;20624;55.870;26.506;2023-02-28T17:35:22;13.55;;;1.90;;
34359;SDS011;20624;55.870;26.506;2023-02-28T17:37:50;12.15;;;1.90;;
34359;SDS011;20624;55.870;26.506;2023-02-28T17:40:21;13.35;;;1.98;;
34359;SDS011;20624;55.870;26.506;2023-02-28T17:42:49;12.93;;;3.22;;
34359;SDS011;20624;55.870;26.506;2023-02-28T17:45:18;4.75;;;0.77;;
34359;SDS011;20624;55.870;26.506;2023-02-28T17:47:47;6.60;;;1.15;;
34359;SDS011;20624;55.870;26.506;2023-02-28T17:52:47;6.70;;;1.33;;
34359;SDS011;20624;55.870;26.506;2023-02-28T17:55:16;2.85;;;0.47;;